createdAt,value
2023-03-12T00:01:34.155Z,0.70
2023-03-12T00:04:04.843Z,1.05
2023-03-12T00:06:32.621Z,2.10
2023-03-12T00:09:02.653Z,1.45
2023-03-12T00:11:30.315Z,4.07
2023-03-12T00:13:59.364Z,0.70
2023-03-12T00:16:27.764Z,2.50
2023-03-12T00:18:56.416Z,0.82
2023-03-12T00:21:24.293Z,0.75
2023-03-12T00:23:52.272Z,4.85
2023-03-12T00:26:20.951Z,1.58
2023-03-12T00:28:51.777Z,1.33
2023-03-12T00:31:24.848Z,3.53
2023-03-12T00:33:52.417Z,0.88
2023-03-12T00:36:21.963Z,1.10
2023-03-12T00:38:49.617Z,0.77
2023-03-12T00:41:17.215Z,1.90
2023-03-12T00:43:44.769Z,1.13
2023-03-12T00:46:12.256Z,0.70
2023-03-12T00:48:40.160Z,1.83
2023-03-12T00:51:08.545Z,0.77
2023-03-12T00:53:36.384Z,3.03
2023-03-12T00:56:04.353Z,2.42
2023-03-12T00:58:32.501Z,0.80
2023-03-12T01:01:01.392Z,1.63
2023-03-12T01:03:29.616Z,1.15
2023-03-12T01:05:57.139Z,5.47
2023-03-12T01:08:25.359Z,5.13
2023-03-12T01:10:52.994Z,2.05
2023-03-12T01:13:20.833Z,1.20
2023-03-12T01:15:48.506Z,1.73
2023-03-12T01:18:15.996Z,1.27
2023-03-12T01:20:43.585Z,3.35
2023-03-12T01:23:11.431Z,1.20
2023-03-12T01:25:39.007Z,1.75
2023-03-12T01:28:06.720Z,1.35
2023-03-12T01:30:34.310Z,0.75
2023-03-12T01:33:01.842Z,4.78
2023-03-12T01:35:29.416Z,2.13
2023-03-12T01:37:57.427Z,3.38
2023-03-12T01:40:29.558Z,1.02
2023-03-12T01:42:57.867Z,1.50
2023-03-12T01:45:44.025Z,1.63
2023-03-12T01:48:11.743Z,1.23
2023-03-12T01:50:39.507Z,4.50
2023-03-12T01:53:07.020Z,1.50
2023-03-12T01:55:34.972Z,0.90
2023-03-12T01:58:05.818Z,5.38
2023-03-12T02:00:33.405Z,1.23
2023-03-12T02:03:03.560Z,3.95
2023-03-12T02:05:39.856Z,1.20
2023-03-12T02:08:07.918Z,5.22
2023-03-12T02:10:35.446Z,2.13
2023-03-12T02:13:03.036Z,1.08
2023-03-12T02:15:31.114Z,1.10
2023-03-12T02:17:58.758Z,9.18
2023-03-12T02:20:29.688Z,4.05
2023-03-12T02:23:01.791Z,1.40
2023-03-12T02:25:32.483Z,0.93
2023-03-12T02:28:00.950Z,2.47
2023-03-12T02:30:30.858Z,1.42
2023-03-12T02:33:02.965Z,1.45
2023-03-12T02:35:31.224Z,1.38
2023-03-12T02:37:59.077Z,1.20
2023-03-12T02:40:29.735Z,1.58
2023-03-12T02:42:57.425Z,1.48
2023-03-12T02:45:26.070Z,3.85
2023-03-12T02:47:53.856Z,1.23
2023-03-12T02:50:21.405Z,4.43
2023-03-12T02:52:48.930Z,1.45
2023-03-12T02:55:16.523Z,1.02
2023-03-12T02:57:44.610Z,0.98
2023-03-12T03:00:13.520Z,3.33
2023-03-12T03:02:41.712Z,1.77
2023-03-12T03:05:10.333Z,1.08
2023-03-12T03:07:37.917Z,3.28
2023-03-12T03:10:06.058Z,3.35
2023-03-12T03:12:34.454Z,0.77
2023-03-12T03:15:01.991Z,1.58
2023-03-12T03:17:29.543Z,1.58
2023-03-12T03:19:57.087Z,2.30
2023-03-12T03:22:24.604Z,2.97
2023-03-12T03:24:53.511Z,2.80
2023-03-12T03:27:21.034Z,2.00
2023-03-12T03:32:15.849Z,3.42
2023-03-12T03:34:43.514Z,3.58
2023-03-12T03:37:11.102Z,2.63
2023-03-12T03:39:39.226Z,1.30
2023-03-12T03:42:06.956Z,1.95
2023-03-12T03:44:34.516Z,1.65
2023-03-12T03:47:02.598Z,0.90
2023-03-12T03:49:30.125Z,1.35
2023-03-12T03:51:57.738Z,1.30
2023-03-12T03:54:25.518Z,1.73
2023-03-12T03:56:53.771Z,1.25
2023-03-12T03:59:21.280Z,4.05
2023-03-12T04:01:49.111Z,1.85
2023-03-12T04:04:16.631Z,1.75
2023-03-12T04:06:44.155Z,3.45
2023-03-12T04:09:11.791Z,4.07
2023-03-12T04:11:39.505Z,1.00
2023-03-12T04:14:07.056Z,2.45
2023-03-12T04:16:34.531Z,0.80
2023-03-12T04:19:02.099Z,1.30
2023-03-12T04:21:29.681Z,1.48
2023-03-12T04:23:57.309Z,1.27
2023-03-12T04:26:28.028Z,2.00
2023-03-12T04:28:55.534Z,2.80
2023-03-12T04:31:23.940Z,4.93
2023-03-12T04:33:51.517Z,1.23
2023-03-12T04:36:19.032Z,1.48
2023-03-12T04:38:48.901Z,1.08
2023-03-12T04:41:17.334Z,1.48
2023-03-12T04:43:45.102Z,1.15
2023-03-12T04:46:12.766Z,2.08
2023-03-12T04:48:40.235Z,1.38
2023-03-12T04:51:10.526Z,12.60
2023-03-12T04:53:38.732Z,2.60
2023-03-12T04:56:06.459Z,0.70
2023-03-12T04:58:34.266Z,1.20
2023-03-12T05:01:01.798Z,0.88
2023-03-12T05:03:30.278Z,1.42
2023-03-12T05:05:58.693Z,6.30
2023-03-12T05:08:26.271Z,1.17
2023-03-12T05:10:57.808Z,1.60
2023-03-12T05:13:25.262Z,1.10
2023-03-12T05:15:52.904Z,1.98
2023-03-12T05:18:22.219Z,1.67
2023-03-12T05:20:59.218Z,2.58
2023-03-12T05:23:27.497Z,1.55
2023-03-12T05:25:55.178Z,0.85
2023-03-12T05:28:23.608Z,4.53
2023-03-12T05:30:51.090Z,1.63
2023-03-12T05:33:18.700Z,1.55
2023-03-12T05:35:48.964Z,1.30
2023-03-12T05:38:16.478Z,4.80
2023-03-12T05:40:44.785Z,1.38
2023-03-12T05:43:12.412Z,3.00
2023-03-12T05:45:43.406Z,1.50
2023-03-12T05:48:11.031Z,2.75
2023-03-12T05:50:38.682Z,2.15
2023-03-12T05:53:06.179Z,3.05
2023-03-12T05:55:40.221Z,2.70
2023-03-12T05:58:09.134Z,1.15
2023-03-12T06:00:38.736Z,1.20
2023-03-12T06:03:06.577Z,1.20
2023-03-12T06:05:35.573Z,2.85
2023-03-12T06:08:03.294Z,1.92
2023-03-12T06:10:30.878Z,1.77
2023-03-12T06:12:58.826Z,2.95
2023-03-12T06:15:26.474Z,0.70
2023-03-12T06:17:54.182Z,2.78
2023-03-12T06:20:21.741Z,2.20
2023-03-12T06:22:49.459Z,3.78
2023-03-12T06:25:17.032Z,2.50
2023-03-12T06:27:44.644Z,1.23
2023-03-12T06:30:12.437Z,5.38
2023-03-12T06:32:40.099Z,1.60
2023-03-12T06:35:09.708Z,3.17
2023-03-12T06:37:37.211Z,1.92
2023-03-12T06:40:06.540Z,2.58
2023-03-12T06:42:34.555Z,2.33
2023-03-12T06:45:02.127Z,1.05
2023-03-12T06:47:29.586Z,1.88
2023-03-12T06:49:57.414Z,2.63
2023-03-12T06:52:25.162Z,1.02
2023-03-12T06:54:53.230Z,1.38
2023-03-12T06:57:23.855Z,2.15
2023-03-12T06:59:52.253Z,1.45
2023-03-12T07:02:19.824Z,3.83
2023-03-12T07:04:47.567Z,3.15
2023-03-12T07:07:18.375Z,2.17
2023-03-12T07:09:46.109Z,5.00
2023-03-12T07:12:16.628Z,2.20
2023-03-12T07:14:44.170Z,3.95
2023-03-12T07:17:11.717Z,2.17
2023-03-12T07:19:41.954Z,1.67
2023-03-12T07:22:10.238Z,1.52
2023-03-12T07:24:37.849Z,1.15
2023-03-12T07:27:05.369Z,2.72
2023-03-12T07:29:35.885Z,2.60
2023-03-12T07:32:03.584Z,1.00
2023-03-12T07:34:31.185Z,1.52
2023-03-12T07:36:58.841Z,1.35
2023-03-12T07:39:28.624Z,1.75
2023-03-12T07:41:56.527Z,1.75
2023-03-12T07:44:24.344Z,1.40
2023-03-12T07:46:51.924Z,2.47
2023-03-12T07:49:19.680Z,4.22
2023-03-12T07:51:47.997Z,1.67
2023-03-12T07:54:15.528Z,4.63
2023-03-12T07:56:43.173Z,1.52
2023-03-12T07:59:11.106Z,1.48
2023-03-12T08:01:38.808Z,1.85
2023-03-12T08:04:06.806Z,1.70
2023-03-12T08:06:34.522Z,2.90
2023-03-12T08:09:02.293Z,4.40
2023-03-12T08:11:31.021Z,1.45
2023-03-12T08:13:58.523Z,2.75
2023-03-12T08:16:26.848Z,1.42
2023-03-12T08:18:54.447Z,2.15
2023-03-12T08:21:22.733Z,2.53
2023-03-12T08:23:50.311Z,1.75
2023-03-12T08:26:18.068Z,1.95
2023-03-12T08:28:45.867Z,1.55
2023-03-12T08:31:20.898Z,2.55
2023-03-12T08:33:48.451Z,1.88
2023-03-12T08:36:16.009Z,1.58
2023-03-12T08:38:43.571Z,3.28
2023-03-12T08:41:13.818Z,1.50
2023-03-12T08:43:42.078Z,1.38
2023-03-12T08:46:12.207Z,1.13
2023-03-12T08:48:40.516Z,1.50
2023-03-12T08:51:08.297Z,2.08
2023-03-12T08:53:36.690Z,2.67
2023-03-12T08:56:07.788Z,4.65
2023-03-12T08:58:35.656Z,2.38
2023-03-12T09:01:03.474Z,2.10
2023-03-12T09:03:31.094Z,2.25
2023-03-12T09:06:06.626Z,3.00
2023-03-12T09:08:34.969Z,3.28
2023-03-12T09:11:03.137Z,5.60
2023-03-12T09:13:54.642Z,3.45
2023-03-12T09:16:21.526Z,1.65
2023-03-12T09:18:49.117Z,1.83
2023-03-12T09:21:16.643Z,1.30
2023-03-12T09:23:44.362Z,1.92
2023-03-12T09:26:12.745Z,1.52
2023-03-12T09:28:40.487Z,2.55
2023-03-12T09:31:08.058Z,2.80
2023-03-12T09:33:36.663Z,1.25
2023-03-12T09:36:04.416Z,2.78
2023-03-12T09:38:32.902Z,1.95
2023-03-12T09:41:00.517Z,1.60
2023-03-12T09:43:36.582Z,8.82
2023-03-12T09:46:05.208Z,1.40
2023-03-12T09:48:34.916Z,2.35
2023-03-12T09:51:04.323Z,4.60
2023-03-12T09:53:38.428Z,1.88
2023-03-12T09:56:09.961Z,1.42
2023-03-12T09:58:39.047Z,1.02
2023-03-12T10:01:25.390Z,2.20
2023-03-12T10:04:11.538Z,2.25
2023-03-12T10:06:48.464Z,1.73
2023-03-12T10:09:18.950Z,3.78
2023-03-12T10:12:04.937Z,1.40
2023-03-12T10:14:58.378Z,3.08
2023-03-12T10:17:51.485Z,9.40
2023-03-12T10:20:38.096Z,2.05
2023-03-12T10:23:12.810Z,4.50
2023-03-12T10:25:40.432Z,2.45
2023-03-12T10:28:14.074Z,1.48
2023-03-12T10:30:44.163Z,3.25
2023-03-12T10:33:14.317Z,2.03
2023-03-12T10:35:42.001Z,3.78
2023-03-12T10:38:18.505Z,5.90
2023-03-12T10:40:46.011Z,1.58
2023-03-12T10:43:13.583Z,1.50
2023-03-12T10:45:58.900Z,1.10
2023-03-12T10:48:29.392Z,5.28
2023-03-12T10:51:07.173Z,2.53
2023-03-12T10:53:36.174Z,3.53
2023-03-12T10:56:09.511Z,1.42
2023-03-12T11:01:05.233Z,1.67
2023-03-12T11:03:32.938Z,2.60
2023-03-12T11:06:04.619Z,2.42
2023-03-12T11:08:33.728Z,1.63
2023-03-12T11:11:02.146Z,3.78
2023-03-12T11:13:29.773Z,2.33
2023-03-12T11:16:17.208Z,2.85
2023-03-12T11:19:02.134Z,2.25
2023-03-12T11:21:30.451Z,3.10
2023-03-12T11:23:58.594Z,1.85
2023-03-12T11:26:29.782Z,2.55
2023-03-12T11:29:02.058Z,5.53
2023-03-12T11:31:34.637Z,1.95
2023-03-12T11:34:05.926Z,1.25
2023-03-12T11:36:43.572Z,2.72
2023-03-12T11:39:29.511Z,1.73
2023-03-12T11:42:01.678Z,6.15
2023-03-12T11:44:49.383Z,3.35
2023-03-12T11:47:21.065Z,1.48
2023-03-12T11:50:09.469Z,4.13
2023-03-12T11:52:46.651Z,2.35
2023-03-12T11:55:16.916Z,5.43
2023-03-12T11:57:59.949Z,4.35
2023-03-12T12:00:38.693Z,1.75
2023-03-12T12:03:18.856Z,3.40
2023-03-12T12:05:53.971Z,2.80
2023-03-12T12:08:24.382Z,2.63
2023-03-12T12:11:10.359Z,1.27
2023-03-12T12:13:43.333Z,2.10
2023-03-12T12:16:10.920Z,4.88
2023-03-12T12:18:41.543Z,10.63
2023-03-12T12:21:27.178Z,3.70
2023-03-12T12:23:55.398Z,2.15
2023-03-12T12:26:27.921Z,1.92
2023-03-12T12:29:01.346Z,1.77
2023-03-12T12:31:37.089Z,2.63
2023-03-12T12:34:11.012Z,1.73
2023-03-12T12:36:39.779Z,6.03
2023-03-12T12:39:07.218Z,2.72
2023-03-12T12:41:36.812Z,1.65
2023-03-12T12:44:11.799Z,7.30
2023-03-12T12:46:49.394Z,3.38
2023-03-12T12:49:52.385Z,2.63
2023-03-12T12:52:21.507Z,6.00
2023-03-12T12:54:57.875Z,2.50
2023-03-12T12:57:48.480Z,3.70
2023-03-12T13:00:34.493Z,2.58
2023-03-12T13:03:02.654Z,4.38
2023-03-12T13:05:41.658Z,5.18
2023-03-12T13:08:12.444Z,5.75
2023-03-12T13:10:48.610Z,2.05
2023-03-12T13:13:27.242Z,2.90
2023-03-12T13:16:14.874Z,17.15
2023-03-12T13:18:42.432Z,1.80
2023-03-12T13:21:17.347Z,3.72
2023-03-12T13:23:52.443Z,6.90
2023-03-12T13:26:20.624Z,3.25
2023-03-12T13:29:06.094Z,5.28
2023-03-12T13:31:39.752Z,6.38
2023-03-12T13:34:07.232Z,2.88
2023-03-12T13:36:37.115Z,1.98
2023-03-12T13:39:07.688Z,2.95
2023-03-12T13:41:35.187Z,2.60
2023-03-12T13:44:22.551Z,2.85
2023-03-12T13:46:57.368Z,6.43
2023-03-12T13:49:25.434Z,3.13
2023-03-12T13:51:57.246Z,6.35
2023-03-12T13:54:27.520Z,7.65
2023-03-12T13:57:05.440Z,8.60
2023-03-12T13:59:34.064Z,4.32
2023-03-12T14:02:05.556Z,4.53
2023-03-12T14:04:38.384Z,4.10
2023-03-12T14:07:20.994Z,3.90
2023-03-12T14:09:48.726Z,3.73
2023-03-12T14:12:35.494Z,2.55
2023-03-12T14:15:19.587Z,3.58
2023-03-12T14:17:47.329Z,4.28
2023-03-12T14:20:22.316Z,11.98
2023-03-12T14:22:51.987Z,10.38
2023-03-12T14:25:38.233Z,3.50
2023-03-12T14:28:12.134Z,3.47
2023-03-12T14:30:45.413Z,3.65
2023-03-12T14:35:46.199Z,4.28
2023-03-12T14:38:39.739Z,3.55
2023-03-12T14:41:16.254Z,3.00
2023-03-12T14:43:44.380Z,4.95
2023-03-12T14:46:22.564Z,5.72
2023-03-12T14:48:51.047Z,6.95
2023-03-12T14:51:27.144Z,5.75
2023-03-12T14:53:55.251Z,3.88
2023-03-12T14:56:24.931Z,6.97
2023-03-12T14:58:52.994Z,6.03
2023-03-12T15:01:24.670Z,4.30
2023-03-12T15:03:58.381Z,5.15
2023-03-12T15:06:29.468Z,3.78
2023-03-12T15:08:57.580Z,4.57
2023-03-12T15:11:26.900Z,7.70
2023-03-12T15:14:01.987Z,6.25
2023-03-12T15:16:29.841Z,8.02
2023-03-12T15:18:58.030Z,3.75
2023-03-12T15:21:26.359Z,6.68
2023-03-12T15:23:53.930Z,7.03
2023-03-12T15:26:21.606Z,12.57
2023-03-12T15:28:59.561Z,5.07
2023-03-12T15:31:27.640Z,6.55
2023-03-12T15:34:03.954Z,7.55
2023-03-12T15:36:32.776Z,4.85
2023-03-12T15:39:00.876Z,8.15
2023-03-12T15:41:53.080Z,7.57
2023-03-12T15:44:22.374Z,6.32
2023-03-12T15:46:52.109Z,4.10
2023-03-12T15:49:22.367Z,6.90
2023-03-12T15:52:08.495Z,4.82
2023-03-12T15:54:41.120Z,5.05
2023-03-12T15:57:23.025Z,13.45
2023-03-12T16:00:13.751Z,13.90
2023-03-12T16:02:41.378Z,5.10
2023-03-12T16:05:09.043Z,5.70
2023-03-12T16:07:36.570Z,5.30
2023-03-12T16:10:04.182Z,9.73
2023-03-12T16:12:31.815Z,5.70
2023-03-12T16:14:59.396Z,7.25
2023-03-12T16:17:27.173Z,10.48
2023-03-12T16:19:54.695Z,7.28
2023-03-12T16:22:23.121Z,6.47
2023-03-12T16:24:50.584Z,7.65
2023-03-12T16:27:23.664Z,6.93
2023-03-12T16:29:59.540Z,4.50
2023-03-12T16:32:27.320Z,6.60
2023-03-12T16:34:54.884Z,4.72
2023-03-12T16:37:22.464Z,3.92
2023-03-12T16:39:50.232Z,5.88
2023-03-12T16:42:18.233Z,4.80
2023-03-12T16:44:46.377Z,4.22
2023-03-12T16:47:14.814Z,6.45
2023-03-12T16:49:42.483Z,6.60
2023-03-12T16:52:20.407Z,4.25
2023-03-12T16:54:54.643Z,4.25
2023-03-12T16:57:33.482Z,4.53
2023-03-12T17:00:01.974Z,4.68
2023-03-12T17:02:30.468Z,3.33
2023-03-12T17:04:58.608Z,6.80
2023-03-12T17:07:26.271Z,5.78
2023-03-12T17:09:53.836Z,6.35
2023-03-12T17:12:30.366Z,5.88
2023-03-12T17:14:58.853Z,4.28
2023-03-12T17:17:26.722Z,5.45
2023-03-12T17:19:54.333Z,4.97
2023-03-12T17:22:22.414Z,4.80
2023-03-12T17:24:50.113Z,4.97
2023-03-12T17:27:17.864Z,3.97
2023-03-12T17:29:45.433Z,5.85
2023-03-12T17:32:13.038Z,6.00
2023-03-12T17:34:40.596Z,7.10
2023-03-12T17:37:08.262Z,6.22
2023-03-12T17:39:39.268Z,4.82
2023-03-12T17:42:06.821Z,5.55
2023-03-12T17:44:35.477Z,7.03
2023-03-12T17:47:03.336Z,8.07
2023-03-12T17:49:31.141Z,5.50
2023-03-12T17:51:58.751Z,10.48
2023-03-12T17:54:26.248Z,10.13
2023-03-12T17:56:53.813Z,7.63
2023-03-12T17:59:21.355Z,6.15
2023-03-12T18:01:48.872Z,5.80
2023-03-12T18:04:16.521Z,9.10
2023-03-12T18:06:44.013Z,5.25
2023-03-12T18:09:11.730Z,6.25
2023-03-12T18:11:42.861Z,6.78
2023-03-12T18:14:10.337Z,6.47
2023-03-12T18:16:37.993Z,5.18
2023-03-12T18:19:05.569Z,5.10
2023-03-12T18:21:33.091Z,4.95
2023-03-12T18:24:08.286Z,5.45
2023-03-12T18:26:41.647Z,4.07
2023-03-12T18:29:09.211Z,6.03
2023-03-12T18:31:36.835Z,4.80
2023-03-12T18:34:04.588Z,6.22
2023-03-12T18:36:32.167Z,5.88
2023-03-12T18:39:00.208Z,6.97
2023-03-12T18:41:30.940Z,6.65
2023-03-12T18:43:58.416Z,5.28
2023-03-12T18:46:26.247Z,6.22
2023-03-12T18:48:56.803Z,7.15
2023-03-12T18:51:24.368Z,8.57
2023-03-12T18:53:51.969Z,5.53
2023-03-12T18:56:19.572Z,4.45
2023-03-12T18:58:47.099Z,7.30
2023-03-12T19:01:15.477Z,4.80
2023-03-12T19:03:43.035Z,5.82
2023-03-12T19:06:11.617Z,5.18
2023-03-12T19:08:39.471Z,7.57
2023-03-12T19:11:11.412Z,4.25
2023-03-12T19:13:39.139Z,6.72
2023-03-12T19:16:11.166Z,5.18
2023-03-12T19:18:39.490Z,7.53
2023-03-12T19:21:10.241Z,6.32
2023-03-12T19:23:37.816Z,5.28
2023-03-12T19:26:06.073Z,6.65
2023-03-12T19:28:33.763Z,6.07
2023-03-12T19:31:05.614Z,5.60
2023-03-12T19:33:34.025Z,4.97
2023-03-12T19:36:01.991Z,5.53
2023-03-12T19:38:30.330Z,6.57
2023-03-12T19:40:58.855Z,11.73
2023-03-12T19:43:26.786Z,6.38
2023-03-12T19:45:56.230Z,9.25
2023-03-12T19:48:25.875Z,7.47
2023-03-12T19:50:54.934Z,7.38
2023-03-12T19:53:22.805Z,6.82
2023-03-12T19:55:50.613Z,8.27
2023-03-12T19:58:18.508Z,8.07
2023-03-12T20:00:46.136Z,5.90
2023-03-12T20:03:13.721Z,8.85
2023-03-12T20:05:45.114Z,8.18
2023-03-12T20:08:12.795Z,6.90
2023-03-12T20:10:40.398Z,6.47
2023-03-12T20:13:10.149Z,7.65
2023-03-12T20:15:40.394Z,10.43
2023-03-12T20:18:07.999Z,6.63
2023-03-12T20:20:35.516Z,10.55
2023-03-12T20:23:03.301Z,6.28
2023-03-12T20:25:30.860Z,7.82
2023-03-12T20:27:59.150Z,7.35
2023-03-12T20:30:26.754Z,6.70
2023-03-12T20:32:59.905Z,7.68
2023-03-12T20:35:27.562Z,6.38
2023-03-12T20:37:55.301Z,12.15
2023-03-12T20:40:22.795Z,8.77
2023-03-12T20:42:50.312Z,7.43
2023-03-12T20:45:17.841Z,6.30
2023-03-12T20:47:45.338Z,8.70
2023-03-12T20:50:13.200Z,6.68
2023-03-12T20:52:40.788Z,7.22
2023-03-12T20:55:08.561Z,7.25
2023-03-12T20:57:36.123Z,7.07
2023-03-12T21:00:04.417Z,10.52
2023-03-12T21:02:31.984Z,7.88
2023-03-12T21:04:59.574Z,6.65
2023-03-12T21:07:27.062Z,9.40
2023-03-12T21:09:55.044Z,7.63
2023-03-12T21:12:22.581Z,10.00
2023-03-12T21:14:50.070Z,6.68
2023-03-12T21:17:17.737Z,8.85
2023-03-12T21:19:45.501Z,7.18
2023-03-12T21:22:13.054Z,6.75
2023-03-12T21:24:40.706Z,6.88
2023-03-12T21:27:11.922Z,7.70
2023-03-12T21:29:39.426Z,10.68
2023-03-12T21:32:07.344Z,7.53
2023-03-12T21:34:34.878Z,6.97
2023-03-12T21:37:02.409Z,6.97
2023-03-12T21:39:30.094Z,8.90
2023-03-12T21:41:57.753Z,10.23
2023-03-12T21:44:26.186Z,7.90
2023-03-12T21:46:53.693Z,11.95
2023-03-12T21:49:21.379Z,7.53
2023-03-12T21:51:48.986Z,8.02
2023-03-12T21:54:16.526Z,6.88
2023-03-12T21:56:44.044Z,8.07
2023-03-12T21:59:11.788Z,9.10
2023-03-12T22:01:39.542Z,8.23
2023-03-12T22:04:07.195Z,6.28
2023-03-12T22:06:34.996Z,7.15
2023-03-12T22:09:02.606Z,7.25
2023-03-12T22:11:30.223Z,6.90
2023-03-12T22:13:58.326Z,10.73
2023-03-12T22:16:26.176Z,8.75
2023-03-12T22:18:53.902Z,8.38
2023-03-12T22:21:22.559Z,6.72
2023-03-12T22:23:53.910Z,9.30
2023-03-12T22:26:22.557Z,6.22
2023-03-12T22:28:54.344Z,6.05
2023-03-12T22:31:23.067Z,7.30
2023-03-12T22:33:51.567Z,9.25
2023-03-12T22:36:19.968Z,9.30
2023-03-12T22:38:48.586Z,6.75
2023-03-12T22:41:17.659Z,8.27
2023-03-12T22:43:45.732Z,12.57
2023-03-12T22:46:17.219Z,8.40
2023-03-12T22:48:46.573Z,6.45
2023-03-12T22:51:14.100Z,7.72
2023-03-12T22:53:41.589Z,8.50
2023-03-12T22:56:10.624Z,6.63
2023-03-12T22:58:38.446Z,8.40
2023-03-12T23:01:07.479Z,6.82
2023-03-12T23:03:35.975Z,12.95
2023-03-12T23:06:04.601Z,6.43
2023-03-12T23:08:32.067Z,7.78
2023-03-12T23:11:01.079Z,8.15
2023-03-12T23:13:29.386Z,7.35
2023-03-12T23:16:01.601Z,7.65
2023-03-12T23:18:29.489Z,7.05
2023-03-12T23:21:01.404Z,7.82
2023-03-12T23:23:29.539Z,6.43
2023-03-12T23:25:58.462Z,8.15
2023-03-12T23:28:27.135Z,11.70
2023-03-12T23:31:12.738Z,9.50
2023-03-12T23:33:40.358Z,11.35
2023-03-12T23:36:26.135Z,9.00
2023-03-12T23:38:53.838Z,11.15
2023-03-12T23:41:22.849Z,9.40
2023-03-12T23:43:50.781Z,12.32
2023-03-12T23:46:18.896Z,11.45
2023-03-12T23:48:48.155Z,9.90
2023-03-12T23:51:15.820Z,11.45
2023-03-12T23:53:44.453Z,10.68
2023-03-12T23:56:16.463Z,11.30
2023-03-12T23:58:44.742Z,12.40
